Time;durP1;ratioP1;P1;durP2;ratioP2;P2;SDS_P1;SDS_P2;PMS_P1;PMS_P2;Temp;Humidity;BMP_temperature;BMP_pressure;BME280_temperature;BME280_humidity;BME280_pressure;Samples;Min_cycle;Max_cycle;Signal;HPM_P1;HPM_P2
2022/10/08 00:00:33;;;;;;;11.82;5.50;;;;;;;-141.48;100.00;69781.59;5191360;28;20042;-72
2022/10/08 00:03:03;;;;;;;17.38;5.18;;;;;;;-141.48;100.00;69781.59;5191388;28;20117;-72
2022/10/08 00:05:34;;;;;;;7.30;4.80;;;;;;;-141.48;100.00;69781.59;5191438;28;20132;-71
2022/10/08 00:08:04;;;;;;;8.80;5.93;;;;;;;-141.48;100.00;69781.59;5209200;28;20032;-72
2022/10/08 00:10:36;;;;;;;7.70;5.25;;;;;;;-141.48;100.00;69781.59;5191259;28;20047;-72
2022/10/08 00:13:06;;;;;;;7.60;4.97;;;;;;;-141.48;100.00;69781.59;5190938;28;20033;-72
2022/10/08 00:15:37;;;;;;;5.10;4.72;;;;;;;-141.48;100.00;69781.59;5190952;28;20021;-71
2022/10/08 00:18:07;;;;;;;5.35;4.15;;;;;;;-141.48;100.00;69781.59;5191116;28;20406;-70
2022/10/08 00:20:38;;;;;;;6.85;4.65;;;;;;;-141.48;100.00;69781.59;5190940;28;20101;-70
2022/10/08 00:23:08;;;;;;;4.47;4.18;;;;;;;-141.48;100.00;69781.59;5191217;28;20477;-70
2022/10/08 00:25:41;;;;;;;17.60;5.82;;;;;;;-141.48;100.00;69781.59;5190788;28;20025;-72
2022/10/08 00:28:14;;;;;;;13.55;4.82;;;;;;;-141.48;100.00;69781.59;5191166;28;20029;-71
2022/10/08 00:30:45;;;;;;;4.95;4.03;;;;;;;-141.48;100.00;69781.59;5191029;28;20024;-72
2022/10/08 00:33:15;;;;;;;13.35;4.72;;;;;;;-141.48;100.00;69781.59;5190629;28;20029;-70
2022/10/08 00:35:46;;;;;;;4.78;4.38;;;;;;;-141.48;100.00;69781.59;5190896;28;20028;-71
2022/10/08 00:38:16;;;;;;;6.10;4.65;;;;;;;-141.48;100.00;69781.59;5208354;28;20025;-71
2022/10/08 00:40:47;;;;;;;6.57;3.55;;;;;;;-141.48;100.00;69781.59;5191042;28;20025;-70
2022/10/08 00:43:18;;;;;;;3.90;3.30;;;;;;;-141.48;100.00;69781.59;5190965;28;20032;-71
2022/10/08 00:45:48;;;;;;;8.95;4.00;;;;;;;-141.48;100.00;69781.59;5188660;28;20040;-71
2022/10/08 00:48:24;;;;;;;7.15;4.13;;;;;;;-141.48;100.00;69781.59;5190460;28;20091;-70
2022/10/08 00:50:55;;;;;;;4.88;4.28;;;;;;;-141.48;100.00;69781.59;5190459;28;20026;-70
2022/10/08 00:53:25;;;;;;;18.98;4.05;;;;;;;-141.48;100.00;69781.59;5190136;28;20511;-69
2022/10/08 00:55:56;;;;;;;11.70;4.85;;;;;;;-141.48;100.00;69781.59;5190998;28;20033;-70
2022/10/08 00:58:27;;;;;;;5.82;4.57;;;;;;;-141.48;100.00;69781.59;5208112;28;20021;-70
2022/10/08 01:00:57;;;;;;;6.90;4.60;;;;;;;-141.48;100.00;69781.59;5221292;22;20066;-81
2022/10/08 01:03:28;;;;;;;5.35;3.97;;;;;;;-141.48;100.00;69781.59;5248947;28;20056;-82
2022/10/08 01:06:04;;;;;;;17.55;4.82;;;;;;;-141.48;100.00;69781.59;5234755;28;20037;-83
2022/10/08 01:08:46;;;;;;;9.88;4.20;;;;;;;-141.48;100.00;69781.59;5235577;28;20036;-82
2022/10/08 01:11:52;;;;;;;5.50;3.95;;;;;;;-141.48;100.00;69781.59;5233305;28;20039;-83
2022/10/08 01:14:34;;;;;;;11.93;5.18;;;;;;;-141.48;100.00;69781.59;5233014;28;20080;-83
2022/10/08 01:17:32;;;;;;;11.95;4.68;;;;;;;-141.48;100.00;69781.59;5221959;28;20104;-82
2022/10/08 01:20:24;;;;;;;5.07;4.07;;;;;;;-141.48;100.00;69781.59;5245509;28;20103;-82
2022/10/08 01:23:33;;;;;;;5.38;4.25;;;;;;;-141.48;100.00;69781.59;5243659;28;20084;-80
2022/10/08 01:26:21;;;;;;;5.03;4.53;;;;;;;-141.48;100.00;69781.59;5221131;28;20102;-80
2022/10/08 01:29:04;;;;;;;3.83;3.47;;;;;;;-141.48;100.00;69781.59;5222950;28;20029;-83
2022/10/08 01:31:43;;;;;;;8.90;3.83;;;;;;;-141.48;100.00;69781.59;5238451;28;20340;-80
2022/10/08 01:34:25;;;;;;;6.55;3.80;;;;;;;-141.48;100.00;69781.59;5235567;28;20057;-81
2022/10/08 01:36:58;;;;;;;16.02;4.57;;;;;;;-141.48;100.00;69781.59;5237369;28;20020;-80
2022/10/08 01:39:33;;;;;;;7.53;4.57;;;;;;;-141.48;100.00;69781.59;5216208;28;20092;-81
2022/10/08 01:42:07;;;;;;;5.05;4.35;;;;;;;-141.48;100.00;69781.59;5235711;28;20112;-82
2022/10/08 01:44:46;;;;;;;6.22;4.60;;;;;;;-141.48;100.00;69781.59;5215853;28;20031;-82
2022/10/08 01:47:20;;;;;;;6.03;5.10;;;;;;;-141.48;100.00;69781.59;5237259;28;20021;-83
2022/10/08 01:49:56;;;;;;;15.32;4.57;;;;;;;-141.48;100.00;69781.59;5236532;28;20374;-82
2022/10/08 01:52:39;;;;;;;10.88;5.63;;;;;;;-141.48;100.00;69781.59;5238456;28;20148;-82
2022/10/08 01:55:17;;;;;;;5.38;4.88;;;;;;;-141.48;100.00;69781.59;5238319;28;20055;-83
2022/10/08 01:57:49;;;;;;;9.60;5.95;;;;;;;-141.48;100.00;69781.59;5239707;28;20021;-83
2022/10/08 02:00:19;;;;;;;4.63;4.22;;;;;;;-141.48;100.00;69781.59;5239962;28;20033;-82
2022/10/08 02:02:53;;;;;;;4.25;3.78;;;;;;;-141.48;100.00;69781.59;5240199;28;20037;-82
2022/10/08 02:05:28;;;;;;;9.00;5.82;;;;;;;-141.48;100.00;69781.59;5221349;28;20159;-82
2022/10/08 02:08:00;;;;;;;5.28;4.68;;;;;;;-141.48;100.00;69781.59;5235857;28;20033;-83
2022/10/08 02:10:31;;;;;;;6.50;4.40;;;;;;;-141.48;100.00;69781.59;5235482;28;20025;-83
2022/10/08 02:13:02;;;;;;;7.70;6.07;;;;;;;-141.48;100.00;69781.59;5236013;28;20025;-84
2022/10/08 02:15:50;;;;;;;10.80;6.82;;;;;;;-141.48;100.00;69781.59;5236911;28;20029;-83
2022/10/08 02:18:36;;;;;;;6.20;4.47;;;;;;;-141.48;100.00;69781.59;5219316;28;20175;-81
2022/10/08 02:21:18;;;;;;;8.35;5.75;;;;;;;-141.48;100.00;69781.59;5236567;28;20024;-81
2022/10/08 02:24:10;;;;;;;5.72;4.80;;;;;;;-141.48;100.00;69781.59;5234969;28;20177;-80
2022/10/08 02:26:47;;;;;;;6.18;5.72;;;;;;;-141.48;100.00;69781.59;5235745;28;20028;-83
2022/10/08 02:29:42;;;;;;;7.03;6.32;;;;;;;-141.48;100.00;69781.59;5235267;28;20039;-81
2022/10/08 02:32:22;;;;;;;14.00;5.93;;;;;;;-141.48;100.00;69781.59;5207680;28;20063;-83
2022/10/08 02:35:03;;;;;;;7.38;5.75;;;;;;;-141.48;100.00;69781.59;5232048;28;20021;-82
2022/10/08 02:37:46;;;;;;;5.65;4.93;;;;;;;-141.48;100.00;69781.59;5233271;28;20107;-83
2022/10/08 02:40:18;;;;;;;17.42;7.55;;;;;;;-141.48;100.00;69781.59;5232906;28;20025;-80
2022/10/08 02:42:54;;;;;;;7.05;6.07;;;;;;;-141.48;100.00;69781.59;5232404;28;20024;-81
2022/10/08 02:45:32;;;;;;;9.23;8.43;;;;;;;-141.48;100.00;69781.59;5233242;28;20031;-82
2022/10/08 02:48:10;;;;;;;12.60;7.28;;;;;;;-141.48;100.00;69781.59;5234216;28;20017;-82
2022/10/08 02:50:43;;;;;;;6.68;6.22;;;;;;;-141.48;100.00;69781.59;5233317;28;20029;-83
2022/10/08 02:53:17;;;;;;;14.45;7.90;;;;;;;-141.48;100.00;69781.59;5239190;28;20040;-82
2022/10/08 02:56:00;;;;;;;7.88;5.88;;;;;;;-141.48;100.00;69781.59;5237797;28;20025;-81
2022/10/08 02:58:31;;;;;;;8.23;7.47;;;;;;;-141.48;100.00;69781.59;5236682;28;20398;-83
2022/10/08 03:01:12;;;;;;;5.88;5.38;;;;;;;-141.48;100.00;69781.59;5238130;28;20035;-82
2022/10/08 03:03:50;;;;;;;6.10;4.97;;;;;;;-141.48;100.00;69781.59;5222044;28;20039;-82
2022/10/08 03:06:21;;;;;;;8.95;6.57;;;;;;;-141.48;100.00;69781.59;5240503;28;20029;-83
2022/10/08 03:08:55;;;;;;;9.38;5.20;;;;;;;-141.48;100.00;69781.59;5244185;28;20055;-81
2022/10/08 03:11:28;;;;;;;9.68;6.75;;;;;;;-141.48;100.00;69781.59;5242898;28;20475;-81
2022/10/08 03:14:04;;;;;;;6.47;5.80;;;;;;;-141.48;100.00;69781.59;5242069;28;20020;-81
2022/10/08 03:16:41;;;;;;;7.80;6.22;;;;;;;-141.48;100.00;69781.59;5243565;28;20025;-82
2022/10/08 03:19:14;;;;;;;18.52;5.82;;;;;;;-141.48;100.00;69781.59;5244365;28;20093;-82
2022/10/08 03:21:47;;;;;;;12.40;6.03;;;;;;;-141.48;100.00;69781.59;5242611;28;20024;-81
2022/10/08 03:24:17;;;;;;;5.40;4.80;;;;;;;-141.48;100.00;69781.59;5242409;28;20025;-81
2022/10/08 03:26:47;;;;;;;5.32;4.97;;;;;;;-141.48;100.00;69781.59;5239242;28;20138;-80
2022/10/08 03:29:18;;;;;;;6.03;4.60;;;;;;;-141.48;100.00;69781.59;5238601;28;20024;-81
2022/10/08 03:31:49;;;;;;;7.50;6.80;;;;;;;-141.48;100.00;69781.59;5238691;28;20025;-82
2022/10/08 03:34:20;;;;;;;10.55;6.20;;;;;;;-141.48;100.00;69781.59;5219286;28;20041;-82
2022/10/08 03:36:50;;;;;;;10.23;6.35;;;;;;;-141.48;100.00;69781.59;5237379;28;20025;-81
2022/10/08 03:39:20;;;;;;;8.60;6.70;;;;;;;-141.48;100.00;69781.59;5236759;28;20039;-78
2022/10/08 03:41:51;;;;;;;14.73;6.38;;;;;;;-141.48;100.00;69781.59;5237936;28;20477;-81
2022/10/08 03:44:21;;;;;;;16.63;5.88;;;;;;;-141.48;100.00;69781.59;5236695;28;20089;-83
2022/10/08 03:46:51;;;;;;;10.82;5.72;;;;;;;-141.48;100.00;69781.59;5237330;28;20047;-80
2022/10/08 03:49:22;;;;;;;5.28;4.80;;;;;;;-141.48;100.00;69781.59;5237918;28;20072;-81
2022/10/08 03:51:52;;;;;;;5.65;5.28;;;;;;;-141.48;100.00;69781.59;5237254;28;20029;-82
2022/10/08 03:54:23;;;;;;;7.00;6.18;;;;;;;-141.48;100.00;69781.59;5236383;28;20021;-81
2022/10/08 03:56:53;;;;;;;11.68;6.55;;;;;;;-141.48;100.00;69781.59;5236996;28;20133;-81
2022/10/08 03:59:24;;;;;;;6.55;6.05;;;;;;;-141.48;100.00;69781.59;5218638;28;20028;-83
2022/10/08 04:01:57;;;;;;;6.85;6.30;;;;;;;-141.48;100.00;69781.59;5236604;28;20043;-81
2022/10/08 04:04:28;;;;;;;8.15;6.25;;;;;;;-141.48;100.00;69781.59;5237609;28;20031;-81
2022/10/08 04:06:58;;;;;;;6.97;5.95;;;;;;;-141.48;100.00;69781.59;5237727;28;20111;-82
2022/10/08 04:09:28;;;;;;;6.03;4.78;;;;;;;-141.48;100.00;69781.59;5236698;28;20580;-82
2022/10/08 04:11:59;;;;;;;7.22;6.00;;;;;;;-141.48;100.00;69781.59;5237146;28;20094;-80
2022/10/08 04:14:29;;;;;;;8.10;7.15;;;;;;;-141.48;100.00;69781.59;5235732;28;20026;-80
2022/10/08 04:17:00;;;;;;;11.52;6.20;;;;;;;-141.48;100.00;69781.59;5236399;28;20392;-82
2022/10/08 04:19:30;;;;;;;7.20;6.60;;;;;;;-141.48;100.00;69781.59;5235079;28;20450;-81
2022/10/08 04:22:00;;;;;;;5.57;5.18;;;;;;;-141.48;100.00;69781.59;5232935;28;20516;-81
2022/10/08 04:24:31;;;;;;;9.70;7.22;;;;;;;-141.48;100.00;69781.59;5232054;28;20028;-81
2022/10/08 04:27:01;;;;;;;7.15;6.57;;;;;;;-141.48;100.00;69781.59;5232993;28;20028;-82
2022/10/08 04:29:31;;;;;;;9.95;8.25;;;;;;;-141.48;100.00;69781.59;5214578;28;20390;-82
2022/10/08 04:32:02;;;;;;;10.10;7.55;;;;;;;-141.48;100.00;69781.59;5232809;28;20474;-83
2022/10/08 04:34:32;;;;;;;7.70;7.13;;;;;;;-141.48;100.00;69781.59;5232279;28;20029;-82
2022/10/08 04:37:03;;;;;;;12.15;8.13;;;;;;;-141.48;100.00;69781.59;5232389;28;20021;-81
2022/10/08 04:39:33;;;;;;;11.10;7.05;;;;;;;-141.48;100.00;69781.59;5213946;28;20021;-82
2022/10/08 04:42:04;;;;;;;8.45;7.75;;;;;;;-141.48;100.00;69781.59;5215165;28;20028;-81
2022/10/08 04:44:34;;;;;;;8.55;7.68;;;;;;;-141.48;100.00;69781.59;5232521;28;20029;-83
2022/10/08 04:47:13;;;;;;;19.52;6.55;;;;;;;-141.48;100.00;69781.59;5234241;28;20029;-82
2022/10/08 04:49:44;;;;;;;9.60;8.63;;;;;;;-141.48;100.00;69781.59;5232993;28;20509;-82
2022/10/08 04:52:16;;;;;;;7.15;6.45;;;;;;;-141.48;100.00;69781.59;5233531;28;20051;-81
2022/10/08 04:54:46;;;;;;;7.90;7.10;;;;;;;-141.48;100.00;69781.59;5232858;28;20043;-84
2022/10/08 04:57:16;;;;;;;10.13;9.00;;;;;;;-141.48;100.00;69781.59;5232570;28;20085;-82
2022/10/08 04:59:47;;;;;;;6.70;6.20;;;;;;;-141.48;100.00;69781.59;5231683;28;20036;-81
2022/10/08 05:02:17;;;;;;;8.00;7.40;;;;;;;-141.48;100.00;69781.59;5232492;28;20056;-82
2022/10/08 05:04:47;;;;;;;9.02;8.18;;;;;;;-141.48;100.00;69781.59;5231145;28;20033;-81
2022/10/08 05:07:18;;;;;;;10.15;7.70;;;;;;;-141.48;100.00;69781.59;5232021;28;20086;-80
2022/10/08 05:09:48;;;;;;;9.57;8.48;;;;;;;-141.48;100.00;69781.59;5231968;28;20080;-81
2022/10/08 05:12:24;;;;;;;11.77;7.95;;;;;;;-141.48;100.00;69781.59;5232292;28;20029;-82
2022/10/08 05:14:55;;;;;;;8.88;7.97;;;;;;;-141.48;100.00;69781.59;5214636;28;20029;-81
2022/10/08 05:17:25;;;;;;;11.35;8.55;;;;;;;-141.48;100.00;69781.59;5231743;28;20051;-82
2022/10/08 05:19:56;;;;;;;10.10;9.32;;;;;;;-141.48;100.00;69781.59;5232534;28;20021;-80
2022/10/08 05:22:26;;;;;;;7.88;7.18;;;;;;;-141.48;100.00;69781.59;5233546;28;20486;-86
2022/10/08 05:24:59;;;;;;;8.40;7.68;;;;;;;-141.48;100.00;69781.59;5231990;28;20485;-81
2022/10/08 05:27:30;;;;;;;8.02;7.53;;;;;;;-141.48;100.00;69781.59;5215430;28;20021;-83
2022/10/08 05:30:01;;;;;;;10.52;9.00;;;;;;;-141.48;100.00;69781.59;5215048;28;20063;-83
2022/10/08 05:32:32;;;;;;;7.82;7.07;;;;;;;-141.48;100.00;69781.59;5231655;28;20039;-82
2022/10/08 05:35:02;;;;;;;9.77;8.40;;;;;;;-141.48;100.00;69781.59;5231779;28;20100;-81
2022/10/08 05:37:33;;;;;;;9.68;6.93;;;;;;;-141.48;100.00;69781.59;5233406;28;20021;-83
2022/10/08 05:40:04;;;;;;;9.27;8.48;;;;;;;-141.48;100.00;69781.59;5232072;28;20040;-84
2022/10/08 05:42:34;;;;;;;10.63;7.65;;;;;;;-141.48;100.00;69781.59;5233651;28;20024;-83
2022/10/08 05:45:05;;;;;;;9.80;8.85;;;;;;;-141.48;100.00;69781.59;5233105;28;20504;-81
2022/10/08 05:47:35;;;;;;;13.15;8.10;;;;;;;-141.48;100.00;69781.59;5215320;28;20063;-82
2022/10/08 05:50:06;;;;;;;10.20;8.15;;;;;;;-141.48;100.00;69781.59;5214028;28;20024;-82
2022/10/08 05:52:37;;;;;;;10.32;9.48;;;;;;;-141.48;100.00;69781.59;5232342;28;20025;-81
2022/10/08 05:55:08;;;;;;;10.40;9.52;;;;;;;-141.48;100.00;69781.59;5230533;28;20042;-81
2022/10/08 05:57:38;;;;;;;10.77;8.80;;;;;;;-141.48;100.00;69781.59;5229614;28;20078;-82
2022/10/08 06:00:09;;;;;;;19.92;9.35;;;;;;;-141.48;100.00;69781.59;5212020;28;20124;-80
2022/10/08 06:02:39;;;;;;;9.15;8.43;;;;;;;-141.48;100.00;69781.59;5229980;28;20112;-80
2022/10/08 06:05:42;;;;;;;9.25;8.43;;;;;;;-141.48;100.00;69781.59;5237907;28;20025;-80
2022/10/08 06:08:13;;;;;;;10.95;9.07;;;;;;;-141.48;100.00;69781.59;5185695;28;20164;-79
2022/10/08 06:10:55;;;;;;;12.63;8.45;;;;;;;-141.48;100.00;69781.59;5209248;28;20141;-80
2022/10/08 06:13:25;;;;;;;10.85;7.85;;;;;;;-141.48;100.00;69781.59;5208585;28;20030;-80
2022/10/08 06:16:00;;;;;;;10.77;9.10;;;;;;;-141.48;100.00;69781.59;5208794;28;20041;-80
2022/10/08 06:18:33;;;;;;;12.93;8.63;;;;;;;-141.48;100.00;69781.59;5226565;28;20140;-79
2022/10/08 06:21:06;;;;;;;11.13;8.25;;;;;;;-141.48;100.00;69781.59;5213116;28;20432;-80
2022/10/08 06:23:39;;;;;;;12.50;9.13;;;;;;;-141.48;100.00;69781.59;5229688;28;20040;-81
2022/10/08 06:26:09;;;;;;;10.02;9.02;;;;;;;-141.48;100.00;69781.59;5229280;28;20032;-80
2022/10/08 06:28:41;;;;;;;14.63;11.40;;;;;;;-141.48;100.00;69781.59;5210141;28;20075;-81
2022/10/08 06:31:11;;;;;;;10.50;9.57;;;;;;;-141.48;100.00;69781.59;5229470;28;20028;-81
2022/10/08 06:33:42;;;;;;;15.13;10.20;;;;;;;-141.48;100.00;69781.59;5227478;28;20024;-80
2022/10/08 06:36:22;;;;;;;10.32;9.35;;;;;;;-141.48;100.00;69781.59;5229522;28;20021;-81
2022/10/08 06:39:07;;;;;;;15.27;10.00;;;;;;;-141.48;100.00;69781.59;5209983;28;20031;-80
2022/10/08 06:41:37;;;;;;;12.50;8.93;;;;;;;-141.48;100.00;69781.59;5209242;28;20032;-81
2022/10/08 06:44:12;;;;;;;17.08;9.95;;;;;;;-141.48;100.00;69781.59;5228063;28;20032;-79
2022/10/08 06:46:42;;;;;;;12.98;10.50;;;;;;;-141.48;100.00;69781.59;5211581;28;20048;-82
2022/10/08 06:49:39;;;;;;;18.55;10.05;;;;;;;-141.48;100.00;69781.59;5217526;28;20017;-79
2022/10/08 06:52:11;;;;;;;16.63;10.80;;;;;;;-141.48;100.00;69781.59;5222854;28;20044;-83
2022/10/08 06:54:50;;;;;;;11.38;9.43;;;;;;;-141.48;100.00;69781.59;5231041;28;20028;-79
2022/10/08 06:57:51;;;;;;;19.27;9.63;;;;;;;-141.48;100.00;69781.59;5232656;28;20100;-80
2022/10/08 07:00:22;;;;;;;12.30;11.23;;;;;;;-141.48;100.00;69781.59;5247464;28;20017;-79
2022/10/08 07:02:52;;;;;;;14.27;10.60;;;;;;;-141.48;100.00;69781.59;5238221;22;20064;-84
2022/10/08 07:05:23;;;;;;;11.65;9.07;;;;;;;-141.48;100.00;69781.59;5196598;28;20056;-84
2022/10/08 07:07:54;;;;;;;16.63;10.85;;;;;;;-141.48;100.00;69781.59;5198921;28;20038;-86
2022/10/08 07:10:24;;;;;;;12.90;11.40;;;;;;;-141.48;100.00;69781.59;5180299;28;20022;-83
2022/10/08 07:12:55;;;;;;;19.10;11.80;;;;;;;-141.48;100.00;69781.59;5197624;28;20026;-84
2022/10/08 07:15:25;;;;;;;12.30;11.00;;;;;;;-141.48;100.00;69781.59;5180684;28;20030;-85
2022/10/08 07:17:56;;;;;;;15.18;9.95;;;;;;;-141.48;100.00;69781.59;5200171;28;20017;-83
2022/10/08 07:20:26;;;;;;;13.93;10.07;;;;;;;-141.48;100.00;69781.59;5201048;28;20030;-84
2022/10/08 07:22:57;;;;;;;11.20;10.15;;;;;;;-141.48;100.00;69781.59;5218728;28;20033;-83
2022/10/08 07:25:28;;;;;;;9.73;8.80;;;;;;;-141.48;100.00;69781.59;5216867;28;20036;-83
2022/10/08 07:28:02;;;;;;;14.82;11.02;;;;;;;-141.48;100.00;69781.59;5217485;28;20071;-85
2022/10/08 07:30:36;;;;;;;13.10;7.93;;;;;;;-141.48;100.00;69781.59;5220409;28;20021;-84
2022/10/08 07:33:13;;;;;;;10.95;9.88;;;;;;;-141.48;100.00;69781.59;5209194;28;20112;-83
2022/10/08 07:35:44;;;;;;;11.63;9.63;;;;;;;-141.48;100.00;69781.59;5180426;28;20026;-83
2022/10/08 07:38:18;;;;;;;14.43;9.27;;;;;;;-141.48;100.00;69781.59;5178435;28;20064;-82
2022/10/08 07:40:52;;;;;;;12.88;9.73;;;;;;;-141.48;100.00;69781.59;5197482;28;20079;-82
2022/10/08 07:43:23;;;;;;;19.27;8.52;;;;;;;-141.48;100.00;69781.59;5199344;28;20033;-82
2022/10/08 07:45:53;;;;;;;14.55;8.70;;;;;;;-141.48;100.00;69781.59;5200466;28;20044;-81
2022/10/08 07:48:24;;;;;;;13.07;7.40;;;;;;;-141.48;100.00;69781.59;5183977;28;20029;-84
2022/10/08 07:50:54;;;;;;;12.35;8.15;;;;;;;-141.48;100.00;69781.59;5182465;28;20076;-84
2022/10/08 07:53:24;;;;;;;10.35;7.68;;;;;;;-141.48;100.00;69781.59;5208482;28;20022;-84
2022/10/08 07:55:56;;;;;;;19.85;8.35;;;;;;;-141.48;100.00;69781.59;5201510;28;20038;-83
2022/10/08 07:58:26;;;;;;;18.38;8.60;;;;;;;-141.48;100.00;69781.59;5200915;28;20030;-83
2022/10/08 08:00:58;;;;;;;13.77;8.55;;;;;;;-141.48;100.00;69781.59;5201814;28;20022;-83
2022/10/08 08:03:29;;;;;;;11.35;6.60;;;;;;;-141.48;100.00;69781.59;5182646;28;20514;-84
2022/10/08 08:06:06;;;;;;;8.18;6.85;;;;;;;-141.48;100.00;69781.59;5200274;28;20025;-83
2022/10/08 08:08:38;;;;;;;14.27;8.45;;;;;;;-141.48;100.00;69781.59;5182386;28;20090;-83
2022/10/08 08:11:11;;;;;;;9.45;8.18;;;;;;;-141.48;100.00;69781.59;5200651;28;20028;-84
2022/10/08 08:13:42;;;;;;;9.77;7.05;;;;;;;-141.48;100.00;69781.59;5200514;28;20049;-84
2022/10/08 08:16:18;;;;;;;8.20;7.40;;;;;;;-141.48;100.00;69781.59;5201188;28;20026;-82
2022/10/08 08:18:50;;;;;;;9.68;6.72;;;;;;;-141.48;100.00;69781.59;5215327;28;20053;-84
2022/10/08 08:21:24;;;;;;;13.43;8.18;;;;;;;-141.48;100.00;69781.59;5222357;28;20032;-84
2022/10/08 08:23:56;;;;;;;14.63;7.68;;;;;;;-141.48;100.00;69781.59;5203224;28;20025;-84
2022/10/08 08:26:31;;;;;;;11.95;5.57;;;;;;;-141.48;100.00;69781.59;5221403;28;20022;-84
2022/10/08 08:29:05;;;;;;;14.13;7.10;;;;;;;-141.48;100.00;69781.59;5204138;28;20041;-82
2022/10/08 08:31:39;;;;;;;8.75;7.43;;;;;;;-141.48;100.00;69781.59;5220936;28;20093;-82
2022/10/08 08:34:12;;;;;;;14.20;6.57;;;;;;;-141.48;100.00;69781.59;5203072;28;20116;-85
2022/10/08 08:36:47;;;;;;;6.53;4.93;;;;;;;-141.48;100.00;69781.59;5221607;28;20450;-82
2022/10/08 08:39:27;;;;;;;9.18;5.70;;;;;;;-141.48;100.00;69781.59;5203352;28;20060;-82
2022/10/08 08:42:19;;;;;;;7.00;5.93;;;;;;;-141.48;100.00;69781.59;5220738;28;20022;-83
2022/10/08 08:45:21;;;;;;;11.13;5.78;;;;;;;-141.48;100.00;69781.59;5220584;28;20017;-82
2022/10/08 08:48:15;;;;;;;9.25;5.93;;;;;;;-141.48;100.00;69781.59;5195705;28;20037;-83
2022/10/08 08:50:49;;;;;;;13.30;6.60;;;;;;;-141.48;100.00;69781.59;5220602;28;20190;-83
2022/10/08 08:53:20;;;;;;;8.73;6.50;;;;;;;-141.48;100.00;69781.59;5203037;28;20109;-83
2022/10/08 08:55:54;;;;;;;10.05;6.70;;;;;;;-141.48;100.00;69781.59;5221332;28;20025;-82
2022/10/08 08:58:50;;;;;;;4.78;4.38;;;;;;;-141.48;100.00;69781.59;5203291;28;20113;-82
2022/10/08 09:01:33;;;;;;;5.72;4.07;;;;;;;-141.48;100.00;69781.59;5209547;28;20140;-83
2022/10/08 09:04:24;;;;;;;9.63;4.20;;;;;;;-141.48;100.00;69781.59;5221695;28;20021;-82
2022/10/08 09:06:57;;;;;;;9.70;3.83;;;;;;;-141.48;100.00;69781.59;5218733;28;20021;-83
2022/10/08 09:09:36;;;;;;;11.05;3.10;;;;;;;-141.48;100.00;69781.59;5212324;28;20040;-83
2022/10/08 09:12:35;;;;;;;5.70;4.50;;;;;;;-141.48;100.00;69781.59;5174700;28;20099;-84
2022/10/08 09:15:18;;;;;;;5.65;3.25;;;;;;;-141.48;100.00;69781.59;5165871;28;20065;-83
2022/10/08 09:17:51;;;;;;;5.07;3.10;;;;;;;-141.48;100.00;69781.59;5191845;28;20029;-84
2022/10/08 09:20:24;;;;;;;5.43;4.22;;;;;;;-141.48;100.00;69781.59;5174454;28;20488;-83
2022/10/08 09:22:55;;;;;;;9.68;5.32;;;;;;;-141.48;100.00;69781.59;5191804;28;20061;-84
2022/10/08 09:25:31;;;;;;;3.88;3.38;;;;;;;-141.48;100.00;69781.59;5190839;28;20025;-84
2022/10/08 09:28:03;;;;;;;7.80;3.85;;;;;;;-141.48;100.00;69781.59;5174099;28;20084;-83
2022/10/08 09:30:36;;;;;;;3.30;3.05;;;;;;;-141.48;100.00;69781.59;5173680;28;20388;-84
2022/10/08 09:33:12;;;;;;;3.80;3.60;;;;;;;-141.48;100.00;69781.59;5175906;28;20053;-84
2022/10/08 09:35:49;;;;;;;8.00;3.53;;;;;;;-141.48;100.00;69781.59;5172741;28;20032;-84
2022/10/08 09:38:22;;;;;;;7.78;4.75;;;;;;;-141.48;100.00;69781.59;5175076;28;20112;-83
2022/10/08 09:41:16;;;;;;;4.18;3.13;;;;;;;-141.48;100.00;69781.59;5190881;28;20097;-83
2022/10/08 09:44:10;;;;;;;3.83;2.83;;;;;;;-141.48;100.00;69781.59;5169203;28;20112;-83
2022/10/08 09:46:41;;;;;;;5.30;2.35;;;;;;;-141.48;100.00;69781.59;5187646;28;20112;-83
2022/10/08 09:49:31;;;;;;;5.65;3.20;;;;;;;-141.48;100.00;69781.59;5169017;28;20117;-83
2022/10/08 09:52:05;;;;;;;;;;;;;;;-141.48;100.00;69781.59;5185559;28;20542;-83
2022/10/08 09:54:42;;;;;;;8.77;2.97;;;;;;;-141.48;100.00;69781.59;5176564;28;20004;-83
2022/10/08 09:57:16;;;;;;;3.58;3.38;;;;;;;-141.48;100.00;69781.59;5194863;28;20030;-84
2022/10/08 09:59:57;;;;;;;6.00;3.45;;;;;;;-141.48;100.00;69781.59;5195676;28;20072;-84
2022/10/08 10:02:34;;;;;;;1.92;1.90;;;;;;;-141.48;100.00;69781.59;5195930;28;20045;-85
2022/10/08 10:05:18;;;;;;;4.10;3.88;;;;;;;-141.48;100.00;69781.59;5194982;28;20025;-84
2022/10/08 10:07:55;;;;;;;2.58;2.45;;;;;;;-141.48;100.00;69781.59;5196303;28;20079;-83
2022/10/08 10:10:39;;;;;;;7.40;3.80;;;;;;;-141.48;100.00;69781.59;5178771;28;20064;-84
2022/10/08 10:13:19;;;;;;;4.45;1.85;;;;;;;-141.48;100.00;69781.59;5179362;28;20038;-83
2022/10/08 10:15:49;;;;;;;;;;;;;;;-141.48;100.00;69781.59;5198095;28;20114;-84
2022/10/08 10:18:32;;;;;;;6.00;3.28;;;;;;;-141.48;100.00;69781.59;5197629;28;19960;-84
2022/10/08 10:21:09;;;;;;;3.47;2.63;;;;;;;-141.48;100.00;69781.59;5180435;28;20503;-84
2022/10/08 10:23:49;;;;;;;2.78;2.55;;;;;;;-141.48;100.00;69781.59;5196909;28;20021;-85
2022/10/08 10:26:24;;;;;;;4.18;3.15;;;;;;;-141.48;100.00;69781.59;5198196;28;20319;-85
2022/10/08 10:28:58;;;;;;;2.17;2.08;;;;;;;-141.48;100.00;69781.59;5180294;28;20021;-84
2022/10/08 10:31:44;;;;;;;3.70;3.28;;;;;;;-141.48;100.00;69781.59;5196416;28;20026;-84
2022/10/08 10:34:27;;;;;;;2.78;2.45;;;;;;;-141.48;100.00;69781.59;5178745;28;20033;-86
2022/10/08 10:37:09;;;;;;;9.73;3.20;;;;;;;-141.48;100.00;69781.59;5195144;28;20526;-84
2022/10/08 10:40:07;;;;;;;4.80;1.73;;;;;;;-141.48;100.00;69781.59;5179364;28;20030;-84
2022/10/08 10:43:00;;;;;;;2.22;2.13;;;;;;;-141.48;100.00;69781.59;5197435;28;20040;-84
2022/10/08 10:45:33;;;;;;;7.63;3.10;;;;;;;-141.48;100.00;69781.59;5193550;28;20507;-86
2022/10/08 10:48:06;;;;;;;2.17;2.08;;;;;;;-141.48;100.00;69781.59;5175441;28;20021;-84
2022/10/08 10:51:09;;;;;;;2.05;1.95;;;;;;;-141.48;100.00;69781.59;5181947;28;20022;-85
2022/10/08 10:53:45;;;;;;;2.00;1.90;;;;;;;-141.48;100.00;69781.59;5189998;28;20037;-84
2022/10/08 10:56:20;;;;;;;7.97;2.92;;;;;;;-141.48;100.00;69781.59;5217928;28;20548;-84
2022/10/08 10:59:07;;;;;;;5.45;2.33;;;;;;;-141.48;100.00;69781.59;5217180;28;20064;-85
2022/10/08 11:02:07;;;;;;;1.92;1.83;;;;;;;-141.48;100.00;69781.59;5216204;28;20037;-85
2022/10/08 11:04:41;;;;;;;3.70;2.10;;;;;;;-141.48;100.00;69781.59;5198994;28;20049;-85
2022/10/08 11:07:36;;;;;;;4.28;2.70;;;;;;;-141.48;100.00;69781.59;5216102;28;20036;-84
2022/10/08 11:10:27;;;;;;;2.80;2.17;;;;;;;-141.48;100.00;69781.59;5216801;28;20021;-84
2022/10/08 11:13:09;;;;;;;10.32;2.60;;;;;;;-141.48;100.00;69781.59;5199435;28;20025;-87
2022/10/08 11:15:46;;;;;;;1.70;1.60;;;;;;;-141.48;100.00;69781.59;5202819;28;20256;-85
2022/10/08 11:18:31;;;;;;;4.30;2.40;;;;;;;-141.48;100.00;69781.59;5169423;28;20605;-85
2022/10/08 11:21:04;;;;;;;5.28;2.30;;;;;;;-141.48;100.00;69781.59;5197236;28;20053;-84
2022/10/08 11:23:54;;;;;;;2.10;2.00;;;;;;;-141.48;100.00;69781.59;5195284;28;20053;-85
2022/10/08 11:26:42;;;;;;;4.68;2.50;;;;;;;-141.48;100.00;69781.59;5179633;28;20121;-83
2022/10/08 11:29:25;;;;;;;4.13;1.67;;;;;;;-141.48;100.00;69781.59;5200000;28;20022;-84
2022/10/08 11:31:56;;;;;;;3.38;2.30;;;;;;;-141.48;100.00;69781.59;5182678;28;20025;-84
2022/10/08 11:34:31;;;;;;;3.83;1.92;;;;;;;-141.48;100.00;69781.59;5199731;28;20022;-84
2022/10/08 11:37:13;;;;;;;9.20;2.85;;;;;;;-141.48;100.00;69781.59;5201164;28;20033;-83
2022/10/08 11:40:02;;;;;;;1.95;1.75;;;;;;;-141.48;100.00;69781.59;5201895;28;20038;-84
2022/10/08 11:42:54;;;;;;;3.40;1.90;;;;;;;-141.48;100.00;69781.59;5182575;28;20030;-84
2022/10/08 11:45:29;;;;;;;2.88;2.70;;;;;;;-141.48;100.00;69781.59;5183520;28;20097;-84